This is the latest recevied weather packets stored in our database for station/object OM3WYM-13. If no packets are shown the sender has not sent any weather packets the latest 10 day(s).
| Time | Temp. | Humidity | Pressure | Rain* | Wind** | Luminosity | Snow |
|---|---|---|---|---|---|---|---|
| 1777468208 | 11.11° C | 28% | 1023.2 hPa | - | - | - | - |
| 1777467008 | 11.11° C | 29% | 1023.4 hPa | - | - | - | - |
| 1777466408 | 11.67° C | 27% | 1023.3 hPa | - | - | - | - |
| 1777465808 | 10.56° C | 30% | 1023.5 hPa | - | - | - | - |
| 1777465208 | 10° C | 31% | 1023.5 hPa | - | - | - | - |
| 1777464608 | 10.56° C | 30% | 1023.4 hPa | - | - | - | - |
| 1777464008 | 10.56° C | 29% | 1023.5 hPa | - | - | - | - |
| 1777462808 | 10° C | 33% | 1023.6 hPa | - | - | - | - |
| 1777462208 | 9.44° C | 34% | 1023.8 hPa | - | - | - | - |
| 1777461608 | 8.89° C | 36% | 1023.8 hPa | - | - | - | - |
| 1777461008 | 8.33° C | 37% | 1024 hPa | - | - | - | - |
| 1777458008 | 8.89° C | 35% | 1023.9 hPa | - | - | - | - |
| 1777457408 | 8.89° C | 35% | 1023.6 hPa | - | - | - | - |
| 1777455607 | 9.44° C | 33% | 1023.7 hPa | - | - | - | - |
| 1777455008 | 10° C | 33% | 1023.5 hPa | - | - | - | - |
| 1777454408 | 8.89° C | 33% | 1023.6 hPa | - | - | - | - |
| 1777453808 | 8.89° C | 34% | 1023.5 hPa | - | - | - | - |
| 1777453208 | 8.89° C | 34% | 1023.5 hPa | - | - | - | - |
| 1777452608 | 9.44° C | 34% | 1023.4 hPa | - | - | - | - |
| 1777452008 | 8.89° C | 35% | 1023.3 hPa | - | - | - | - |
| 1777451408 | 8.89° C | 35% | 1023.3 hPa | - | - | - | - |
| 1777450808 | 9.44° C | 37% | 1023.2 hPa | - | - | - | - |
| 1777450208 | 9.44° C | 37% | 1023.2 hPa | - | - | - | - |
| 1777449607 | 8.89° C | 35% | 1023.2 hPa | - | - | - | - |
| 1777449008 | 8.89° C | 36% | 1023.4 hPa | - | - | - | - |
* Rain since midnight (hover to see other rain measurements)
** Current wind speed in m/s (hover to see current wind gust speed)